CZMT

Masset Airport

Masset, , Canada
TAF CZMT 221610Z 2216/2302 17012KT P6SM BKN030 TEMPO 2216/2302 5SM -RA BR FEW008 OVC020 RMK NXT FCST BY 221900Z
Issued Valid From Valid To
Jan-22 @ 16:10 UTC
(59 minutes ago)
Jan-22 @ 16:00 UTC
(an hour ago)
Jan-23 @ 02:00 UTC
(in 9 hours)
Jan-22 @ 16:00 to Jan-23 @ 02:00
TAF CZMT 221610Z 2216/2302 17012KT P6SM BKN030
Wind Visibility Clouds
170° at 12 knots Greater than 6 miles
  • Broken at 3,000' AGL
Temporary Jan-22 @ 16:00 to Jan-23 @ 02:00
TEMPO 2216/2302 5SM -RA BR FEW008 OVC020 RMK NXT FCST BY 221900Z
Visibility Clouds Conditions
5 miles
  • Few at 800' AGL
  • Overcast at 2,000' AGL
  • Light Rain
  • Mist
TAF CZMT 221610Z 2216/2302 17012KT P6SM BKN030 TEMPO 2216/2302 5SM -RA BR FEW008 OVC020 RMK NXT FCST BY 221900Z
Issued Jan-22 @ 16:10 UTC
(59 minutes ago)
Valid From Jan-22 @ 16:00 UTC
(an hour ago)
Valid To Jan-23 @ 02:00 UTC
(in 9 hours)
Jan-22 @ 16:00 - Jan-23 @ 02:00
Wind Visibility
170° at 12 knots Greater than 6 miles
Clouds
  • Broken at 3,000' AGL
Temporary Jan-22 @ 16:00 - Jan-23 @ 02:00
Clouds
  • Few at 800' AGL
  • Overcast at 2,000' AGL
Conditions
  • Light Rain
  • Mist